Weather at Antalya International Airport

Public forecast

Using degrees Celsius for public forecast. Weather courtesy of forecast.io.

Current aviation weather report (METAR) for Antalya International Airport

Retrieved 2021/02/27 02:20 UTC (24 minutes ago):

LTAI 270220Z 34004KT CAVOK 06/03 Q1018 NOSIG RMK RWY18C 34004KT RWY36R 34004KT RWY18L 32004KT 290V360

Aviation forecast (TAF) for Antalya International Airport

Forecast is more than 6 hours old.

Retrieved 2021/02/26 18:00 UTC (9 hours ago):

TAF LTAI 261640Z 2618/2718 34006KT CAVOK BECMG 2708/2711 18010KT BECMG 2715/2718 34006KT